Time;durP1;ratioP1;P1;durP2;ratioP2;P2;SDS_P1;SDS_P2;PMS_P1;PMS_P2;Temp;Humidity;BMP_temperature;BMP_pressure;BME280_temperature;BME280_humidity;BME280_pressure;Samples;Min_cycle;Max_cycle;Signal;HPM_P1;HPM_P2
2022/05/12 00:02:06;;;;;;;5.07;4.37;;;24.70;51.40;;;;;;5066768;28;20455;-88
2022/05/12 00:04:36;;;;;;;5.03;4.40;;;24.70;51.70;;;;;;5075982;28;20447;-88
2022/05/12 00:07:04;;;;;;;7.90;4.63;;;24.70;51.70;;;;;;5056701;28;20466;-89
2022/05/12 00:09:31;;;;;;;5.80;4.30;;;24.40;51.30;;;;;;5092392;28;20528;-88
2022/05/12 00:11:58;;;;;;;7.00;4.37;;;24.50;51.50;;;;;;5060177;28;20443;-88
2022/05/12 00:14:26;;;;;;;5.57;4.57;;;24.50;51.40;;;;;;5064495;28;20467;-89
2022/05/12 00:16:56;;;;;;;3.97;3.63;;;24.40;51.20;;;;;;5083339;28;20469;-88
2022/05/12 00:19:26;;;;;;;8.33;4.67;;;24.20;50.90;;;;;;5075954;28;20974;-89
2022/05/12 00:21:54;;;;;;;4.80;4.40;;;24.00;51.00;;;;;;5072922;28;20436;-87
2022/05/12 00:24:21;;;;;;;4.00;3.70;;;23.90;51.50;;;;;;5066904;28;20885;-90
2022/05/12 00:26:48;;;;;;;4.70;4.20;;;23.90;51.50;;;;;;5056219;28;20451;-88
2022/05/12 00:29:17;;;;;;;5.07;4.67;;;23.80;51.60;;;;;;5093744;28;20545;-88
2022/05/12 00:31:45;;;;;;;4.80;4.30;;;23.60;52.40;;;;;;5075398;28;20874;-89
2022/05/12 00:34:13;;;;;;;4.57;4.20;;;23.60;52.50;;;;;;5074226;28;20447;-89
2022/05/12 00:36:40;;;;;;;6.97;4.17;;;23.50;52.70;;;;;;5074045;28;20459;-89
2022/05/12 00:39:09;;;;;;;5.73;5.07;;;23.50;52.30;;;;;;5072937;28;21070;-88
2022/05/12 00:41:37;;;;;;;4.47;4.07;;;23.60;52.90;;;;;;5065207;28;20567;-88
2022/05/12 00:44:07;;;;;;;6.70;4.30;;;23.60;52.50;;;;;;5091561;28;20444;-87
2022/05/12 00:46:37;;;;;;;4.90;4.50;;;23.60;52.80;;;;;;5074216;28;20443;-88
2022/05/12 00:49:08;;;;;;;4.53;4.13;;;23.60;52.20;;;;;;5090178;28;20802;-89
2022/05/12 00:51:39;;;;;;;4.90;4.37;;;23.50;52.60;;;;;;5068244;28;20450;-88
2022/05/12 00:54:13;;;;;;;4.57;4.17;;;23.30;52.20;;;;;;5071771;28;20448;-88
2022/05/12 00:56:40;;;;;;;4.60;4.20;;;23.30;52.50;;;;;;5055087;28;20523;-88
2022/05/12 00:59:12;;;;;;;5.90;4.30;;;23.30;52.50;;;;;;5057254;28;20506;-89
2022/05/12 01:01:40;;;;;;;4.83;4.43;;;23.20;52.80;;;;;;5073421;28;20945;-88
2022/05/12 01:04:07;;;;;;;5.13;3.97;;;23.20;52.50;;;;;;5073705;28;20456;-87
2022/05/12 01:06:34;;;;;;;4.67;4.30;;;23.30;52.60;;;;;;5090270;28;20951;-87
2022/05/12 01:09:01;;;;;;;5.20;4.70;;;23.20;52.90;;;;;;5056788;28;20542;-88
2022/05/12 01:11:30;;;;;;;13.57;4.90;;;23.20;52.50;;;;;;5089456;28;20475;-90
2022/05/12 01:14:00;;;;;;;4.70;4.30;;;23.10;52.50;;;;;;5088727;28;20440;-87
2022/05/12 01:16:37;;;;;;;6.57;4.33;;;23.00;53.00;;;;;;5071807;28;20448;-89
2022/05/12 01:19:05;;;;;;;5.03;4.63;;;23.00;53.10;;;;;;5073427;28;20459;-88
2022/05/12 01:21:33;;;;;;;4.93;4.53;;;23.00;53.20;;;;;;5063695;28;20950;-87
2022/05/12 01:24:01;;;;;;;5.70;3.90;;;23.10;52.90;;;;;;5067930;28;20444;-86
2022/05/12 01:26:29;;;;;;;4.83;4.43;;;23.10;52.60;;;;;;5087362;28;20539;-89
2022/05/12 01:28:56;;;;;;;5.33;4.80;;;23.10;52.60;;;;;;5078955;28;20879;-89
2022/05/12 01:31:24;;;;;;;7.43;4.37;;;23.10;52.70;;;;;;5084866;28;20479;-88
2022/05/12 01:33:52;;;;;;;6.53;3.97;;;23.10;52.40;;;;;;5086469;28;20767;-88
2022/05/12 01:36:20;;;;;;;4.93;4.53;;;23.00;52.00;;;;;;5069860;28;20532;-88
2022/05/12 01:38:48;;;;;;;6.90;4.90;;;23.00;52.60;;;;;;5057712;28;20456;-88
2022/05/12 01:41:16;;;;;;;4.90;4.37;;;22.90;52.60;;;;;;5056164;28;20999;-88
2022/05/12 01:43:44;;;;;;;4.27;3.97;;;22.90;52.20;;;;;;5089936;28;20447;-87
2022/05/12 01:46:11;;;;;;;5.00;4.50;;;22.80;52.60;;;;;;5084970;28;20492;-87
2022/05/12 01:48:38;;;;;;;6.67;4.00;;;22.90;52.40;;;;;;5070927;28;20448;-88
2022/05/12 01:51:06;;;;;;;4.17;3.87;;;22.90;52.30;;;;;;5069463;28;21080;-87
2022/05/12 01:53:33;;;;;;;8.60;4.20;;;23.10;51.80;;;;;;5094407;28;20461;-86
2022/05/12 01:56:00;;;;;;;5.17;4.43;;;23.10;51.40;;;;;;5057582;28;21260;-86
2022/05/12 01:58:28;;;;;;;7.13;4.10;;;23.00;51.40;;;;;;5076929;28;20539;-86
2022/05/12 02:00:55;;;;;;;4.67;3.73;;;23.10;51.20;;;;;;5078970;28;20834;-88
2022/05/12 02:03:22;;;;;;;4.70;3.80;;;23.20;50.60;;;;;;5074822;28;20550;-87
2022/05/12 02:05:49;;;;;;;4.93;3.87;;;23.20;49.90;;;;;;5065852;28;20467;-87
2022/05/12 02:08:18;;;;;;;4.77;4.00;;;23.20;50.30;;;;;;5074070;28;20458;-86
2022/05/12 02:10:48;;;;;;;8.77;4.00;;;23.20;50.10;;;;;;5095231;28;20463;-87
2022/05/12 02:13:17;;;;;;;9.13;3.67;;;23.30;50.00;;;;;;5094911;28;20451;-87
2022/05/12 02:15:46;;;;;;;4.20;3.80;;;23.40;49.70;;;;;;5063617;28;20467;-88
2022/05/12 02:18:13;;;;;;;6.70;4.07;;;23.50;49.50;;;;;;5052083;28;20966;-88
2022/05/12 02:20:40;;;;;;;4.50;4.00;;;23.50;49.00;;;;;;5092764;28;21035;-87
2022/05/12 02:23:07;;;;;;;4.40;4.00;;;23.50;50.00;;;;;;5093879;28;20859;-88
2022/05/12 02:25:35;;;;;;;8.03;4.70;;;23.50;50.20;;;;;;5075413;28;20538;-88
2022/05/12 02:28:01;;;;;;;4.33;3.53;;;23.50;49.80;;;;;;5066265;28;21120;-89
2022/05/12 02:30:31;;;;;;;4.47;4.07;;;23.60;49.90;;;;;;5060540;28;21944;-87
2022/05/12 02:32:59;;;;;;;3.80;3.50;;;23.60;49.20;;;;;;5074863;28;20444;-88
2022/05/12 02:35:27;;;;;;;5.17;3.60;;;23.60;49.80;;;;;;5073438;28;20448;-87
2022/05/12 02:37:55;;;;;;;5.17;4.57;;;23.60;49.60;;;;;;5064597;28;20498;-88
2022/05/12 02:40:24;;;;;;;5.63;4.33;;;23.30;50.80;;;;;;5075298;28;21132;-87
2022/05/12 02:42:52;;;;;;;4.70;3.90;;;23.20;50.00;;;;;;5058863;28;20454;-87
2022/05/12 02:45:19;;;;;;;5.60;3.80;;;23.10;49.20;;;;;;5070823;28;20451;-88
2022/05/12 02:47:46;;;;;;;5.47;3.93;;;23.20;49.50;;;;;;5044281;28;20457;-88
2022/05/12 02:50:16;;;;;;;5.70;3.77;;;23.20;48.90;;;;;;5056933;28;20514;-88
2022/05/12 02:52:44;;;;;;;5.20;3.20;;;23.20;48.30;;;;;;5072379;28;20440;-87
2022/05/12 02:55:11;;;;;;;4.30;3.90;;;23.20;48.40;;;;;;5070937;28;20444;-88
2022/05/12 02:57:40;;;;;;;4.40;4.00;;;23.10;50.00;;;;;;5073312;28;20458;-88
2022/05/12 03:00:09;;;;;;;4.70;3.70;;;23.10;51.40;;;;;;5067558;28;20504;-88
2022/05/12 03:02:36;;;;;;;4.70;4.20;;;23.00;49.60;;;;;;5092415;28;20475;-87
2022/05/12 03:05:04;;;;;;;5.07;3.90;;;23.10;50.10;;;;;;5091408;28;20450;-87
2022/05/12 03:07:33;;;;;;;5.90;4.10;;;23.00;49.80;;;;;;5082520;28;20531;-88
2022/05/12 03:10:00;;;;;;;5.67;4.90;;;22.90;51.40;;;;;;5074793;28;20459;-89
2022/05/12 03:12:27;;;;;;;4.80;4.23;;;22.80;52.10;;;;;;5075991;28;20458;-87
2022/05/12 03:14:54;;;;;;;7.73;4.37;;;22.90;51.70;;;;;;5092033;28;20452;-88
2022/05/12 03:17:21;;;;;;;4.63;3.97;;;22.90;50.70;;;;;;5077036;28;20443;-88
2022/05/12 03:19:48;;;;;;;4.40;4.00;;;22.80;51.20;;;;;;5078279;28;20474;-89
2022/05/12 03:22:15;;;;;;;5.70;4.47;;;22.70;52.10;;;;;;5058776;28;20946;-88
2022/05/12 03:24:44;;;;;;;4.07;3.77;;;22.60;52.20;;;;;;5073483;28;20480;-87
2022/05/12 03:27:11;;;;;;;11.93;4.30;;;22.60;52.20;;;;;;5057672;28;20452;-88
2022/05/12 03:29:38;;;;;;;5.50;3.97;;;22.70;50.00;;;;;;5060582;28;20596;-85
2022/05/12 03:32:10;;;;;;;5.50;5.00;;;22.70;49.90;;;;;;5072287;28;20523;-87
2022/05/12 03:34:38;;;;;;;5.90;4.83;;;22.70;51.90;;;;;;5069377;28;20447;-87
2022/05/12 03:37:07;;;;;;;4.23;3.83;;;22.70;52.20;;;;;;5070503;28;20988;-88
2022/05/12 03:39:34;;;;;;;4.23;3.93;;;22.70;51.30;;;;;;5071843;28;20483;-87
2022/05/12 03:42:04;;;;;;;7.13;5.17;;;22.60;50.10;;;;;;5072711;28;20463;-88
2022/05/12 03:44:49;;;;;;;6.17;4.70;;;22.40;52.80;;;;;;5071236;28;20452;-88
2022/05/12 03:47:20;;;;;;;5.27;4.77;;;22.50;53.30;;;;;;5072725;28;20444;-87
2022/05/12 03:49:47;;;;;;;5.40;4.60;;;22.40;52.60;;;;;;5072880;28;20475;-89
2022/05/12 03:52:15;;;;;;;5.00;4.50;;;22.30;52.50;;;;;;5062990;28;20522;-88
2022/05/12 03:54:42;;;;;;;5.20;4.70;;;22.30;52.60;;;;;;5083368;28;20493;-88
2022/05/12 03:57:12;;;;;;;7.87;4.60;;;22.40;52.30;;;;;;5074517;28;20462;-88
2022/05/12 03:59:40;;;;;;;4.97;4.47;;;22.30;52.50;;;;;;5058691;28;20466;-89
2022/05/12 04:02:08;;;;;;;4.93;4.27;;;22.30;52.50;;;;;;5075161;28;20450;-88
2022/05/12 04:04:36;;;;;;;6.07;4.50;;;22.30;52.60;;;;;;5065366;28;21160;-88
2022/05/12 04:07:03;;;;;;;6.73;4.13;;;22.20;52.70;;;;;;5075827;28;20954;-88
2022/05/12 04:09:30;;;;;;;6.20;4.50;;;22.20;53.00;;;;;;5062785;28;20858;-87
2022/05/12 04:11:57;;;;;;;7.00;4.27;;;22.30;52.90;;;;;;5092894;28;20467;-88
2022/05/12 04:14:25;;;;;;;5.90;4.80;;;22.20;52.80;;;;;;5091867;28;20449;-87
2022/05/12 04:16:52;;;;;;;6.97;4.27;;;22.20;52.70;;;;;;5092173;28;20442;-87
2022/05/12 04:19:19;;;;;;;4.83;4.07;;;22.20;52.70;;;;;;5074209;28;20958;-88
2022/05/12 04:21:46;;;;;;;6.03;4.47;;;22.20;52.50;;;;;;5092531;28;20475;-88
2022/05/12 04:24:13;;;;;;;5.17;4.67;;;22.20;52.60;;;;;;5073706;28;20451;-87
2022/05/12 04:26:41;;;;;;;5.90;4.10;;;22.10;52.10;;;;;;5092769;28;20496;-88
2022/05/12 04:29:08;;;;;;;3.83;3.37;;;22.10;52.20;;;;;;5077289;28;20454;-87
2022/05/12 04:31:36;;;;;;;3.50;3.20;;;22.10;51.80;;;;;;5074602;28;20442;-88
2022/05/12 04:36:49;;;;;;;6.53;3.40;;;22.10;51.80;;;;;;5062739;28;20436;-88
2022/05/12 04:39:17;;;;;;;4.60;3.37;;;21.90;51.50;;;;;;5080510;28;20801;-88
2022/05/12 04:41:44;;;;;;;4.33;3.73;;;21.70;51.90;;;;;;5049733;28;20506;-88
2022/05/12 04:44:12;;;;;;;3.43;3.20;;;21.80;52.40;;;;;;5090423;28;20549;-87
2022/05/12 04:46:42;;;;;;;5.40;3.33;;;21.90;52.10;;;;;;5091825;28;20435;-87
2022/05/12 04:49:13;;;;;;;3.47;3.17;;;22.00;52.40;;;;;;5065533;28;21163;-87
2022/05/12 04:51:41;;;;;;;3.43;3.20;;;22.20;52.50;;;;;;5076846;28;20450;-87
2022/05/12 04:54:09;;;;;;;4.73;3.80;;;22.30;52.60;;;;;;5061831;28;20458;-87
2022/05/12 04:56:36;;;;;;;4.27;2.90;;;22.40;52.00;;;;;;5057542;28;20470;-87
2022/05/12 04:59:04;;;;;;;3.47;3.17;;;22.30;52.00;;;;;;5073843;28;20538;-88
2022/05/12 05:01:31;;;;;;;4.80;3.50;;;22.30;52.10;;;;;;5047301;28;20497;-89
2022/05/12 05:04:01;;;;;;;2.70;2.50;;;22.20;51.90;;;;;;5054068;28;20692;-87
2022/05/12 05:06:28;;;;;;;5.10;3.17;;;22.30;51.30;;;;;;5065819;28;20445;-88
2022/05/12 05:08:55;;;;;;;4.80;3.07;;;22.30;51.30;;;;;;5043521;28;20529;-87
2022/05/12 05:11:22;;;;;;;3.43;3.23;;;22.30;51.70;;;;;;5056816;28;20462;-87
2022/05/12 05:13:49;;;;;;;3.23;2.80;;;22.40;52.30;;;;;;5071957;28;20448;-88
2022/05/12 05:16:17;;;;;;;3.27;2.97;;;22.50;51.40;;;;;;5054587;28;20456;-88
2022/05/12 05:18:45;;;;;;;4.87;2.77;;;22.40;51.70;;;;;;5050553;28;20452;-91
2022/05/12 05:21:13;;;;;;;3.57;2.83;;;22.40;51.80;;;;;;5058099;28;20486;-90
2022/05/12 05:23:40;;;;;;;2.90;2.60;;;22.60;51.70;;;;;;5072063;28;21080;-88
2022/05/12 05:26:08;;;;;;;2.73;2.47;;;22.60;51.40;;;;;;5046555;28;20438;-88
2022/05/12 05:28:36;;;;;;;4.87;3.27;;;22.70;51.30;;;;;;5079175;28;20452;-89
2022/05/12 05:31:04;;;;;;;5.60;2.80;;;22.70;51.40;;;;;;5077037;28;20451;-87
2022/05/12 05:33:31;;;;;;;2.80;2.60;;;22.90;51.10;;;;;;5066160;28;20450;-87
2022/05/12 05:35:58;;;;;;;4.93;2.70;;;23.00;51.50;;;;;;5094691;28;20450;-87
2022/05/12 05:38:26;;;;;;;2.70;2.50;;;23.10;51.50;;;;;;5084827;28;21462;-89
2022/05/12 05:40:53;;;;;;;5.50;2.90;;;23.20;51.60;;;;;;5081746;28;20486;-88
2022/05/12 05:43:21;;;;;;;3.27;2.83;;;23.20;51.70;;;;;;5083331;28;20454;-88
2022/05/12 05:45:48;;;;;;;4.37;2.97;;;23.30;51.40;;;;;;5059175;28;20790;-87
2022/05/12 05:48:15;;;;;;;3.00;2.80;;;23.40;51.20;;;;;;5065358;28;20456;-88
2022/05/12 05:53:33;;;;;;;4.50;2.47;;;23.40;50.90;;;;;;5083492;28;20453;-87
2022/05/12 05:56:02;;;;;;;3.97;2.20;;;23.50;50.60;;;;;;5076819;28;20869;-88
2022/05/12 05:58:30;;;;;;;2.70;2.50;;;23.50;50.40;;;;;;5074900;28;20451;-88
2022/05/12 06:00:57;;;;;;;7.10;2.80;;;23.50;50.80;;;;;;5041087;28;20978;-88
2022/05/12 06:03:25;;;;;;;3.63;2.07;;;23.40;50.70;;;;;;5093961;28;20431;-87
2022/05/12 06:05:52;;;;;;;3.77;2.20;;;23.50;50.90;;;;;;5094434;28;20462;-87
2022/05/12 06:08:21;;;;;;;3.97;2.20;;;23.60;51.30;;;;;;5060925;28;20443;-88
2022/05/12 06:10:49;;;;;;;2.83;2.63;;;23.70;50.30;;;;;;5075912;28;20491;-88
2022/05/12 06:13:17;;;;;;;6.17;2.43;;;23.70;49.90;;;;;;5074666;28;20874;-88
2022/05/12 06:15:44;;;;;;;4.80;2.40;;;23.80;51.10;;;;;;5076836;28;20440;-88
2022/05/12 06:18:14;;;;;;;6.00;2.90;;;23.70;51.10;;;;;;5074529;28;20458;-88
2022/05/12 06:20:43;;;;;;;3.00;2.30;;;23.60;50.80;;;;;;5076656;28;20486;-88
2022/05/12 06:23:11;;;;;;;6.97;3.07;;;23.80;50.60;;;;;;5093465;28;20982;-90
2022/05/12 06:25:38;;;;;;;4.17;2.50;;;23.90;51.00;;;;;;5068466;28;20444;-89
2022/05/12 06:28:07;;;;;;;5.60;2.67;;;24.10;51.00;;;;;;5048540;28;20448;-88
2022/05/12 06:30:34;;;;;;;2.40;2.20;;;24.10;50.30;;;;;;5059819;28;20464;-90
2022/05/12 06:33:01;;;;;;;6.17;2.27;;;24.20;49.20;;;;;;5095382;28;20455;-89
2022/05/12 06:35:28;;;;;;;5.33;2.83;;;24.20;49.30;;;;;;5062981;28;20455;-89
2022/05/12 06:37:55;;;;;;;2.73;2.53;;;24.20;49.20;;;;;;5063061;28;20444;-88
2022/05/12 06:40:23;;;;;;;4.53;2.03;;;24.20;48.90;;;;;;5055511;28;20460;-88
2022/05/12 06:42:50;;;;;;;6.40;2.60;;;24.30;49.40;;;;;;5069926;28;20587;-88
2022/05/12 06:45:21;;;;;;;2.93;2.60;;;24.30;49.10;;;;;;5046664;28;21059;-88
2022/05/12 06:47:50;;;;;;;2.30;2.10;;;24.20;48.50;;;;;;5070384;28;20474;-88
2022/05/12 06:50:19;;;;;;;2.47;2.27;;;24.20;48.70;;;;;;5075610;28;20990;-90
2022/05/12 06:52:47;;;;;;;2.30;2.20;;;24.20;48.70;;;;;;5051804;28;20439;-88
2022/05/12 06:55:14;;;;;;;3.30;2.43;;;24.30;48.90;;;;;;5062825;28;20448;-89
2022/05/12 06:57:42;;;;;;;6.07;2.13;;;24.10;47.80;;;;;;5097322;28;20485;-90
2022/05/12 07:00:11;;;;;;;2.23;1.93;;;23.90;47.40;;;;;;5054617;28;20471;-87
2022/05/12 07:02:39;;;;;;;2.43;2.23;;;23.70;48.00;;;;;;5077918;28;20470;-89
2022/05/12 07:05:08;;;;;;;2.20;2.00;;;23.60;48.00;;;;;;5053765;28;20471;-89
2022/05/12 07:07:36;;;;;;;3.00;2.53;;;23.80;48.30;;;;;;5091558;28;21307;-89
2022/05/12 07:10:04;;;;;;;3.80;2.00;;;23.70;47.80;;;;;;5074798;28;20478;-88
2022/05/12 07:12:31;;;;;;;6.10;1.93;;;23.70;48.50;;;;;;5068417;28;20454;-89
2022/05/12 07:14:58;;;;;;;5.70;1.90;;;23.70;48.00;;;;;;5059890;28;20452;-89
2022/05/12 07:17:25;;;;;;;3.10;1.90;;;23.60;47.60;;;;;;5061255;28;20477;-89
2022/05/12 07:26:34;;;;;;;2.53;2.07;;;23.60;48.00;;;;;;5091868;28;20474;-90
2022/05/12 07:28:09;;;;;;;4.87;3.03;;;23.50;47.80;;;;;;5095069;28;20446;-87
2022/05/12 07:33:17;;;;;;;3.50;2.33;;;23.70;47.20;;;;;;5046525;28;20445;-88
2022/05/12 07:35:45;;;;;;;1.73;1.63;;;23.70;46.90;;;;;;5072188;28;20958;-89
2022/05/12 07:38:12;;;;;;;1.77;1.67;;;23.90;46.70;;;;;;5048591;28;20759;-88
2022/05/12 07:40:40;;;;;;;4.07;1.87;;;23.60;46.70;;;;;;5092204;28;20480;-88
2022/05/12 07:43:07;;;;;;;2.50;1.80;;;23.70;47.10;;;;;;5062088;28;20538;-87
2022/05/12 07:45:34;;;;;;;2.20;1.50;;;23.70;47.00;;;;;;5092864;28;20482;-89
2022/05/12 07:48:01;;;;;;;2.90;1.77;;;23.50;46.00;;;;;;5081458;28;20489;-89
2022/05/12 07:50:28;;;;;;;1.60;1.50;;;23.70;46.00;;;;;;5057670;28;20475;-89
2022/05/12 07:52:56;;;;;;;3.70;1.50;;;23.80;45.90;;;;;;5071023;28;20468;-88
2022/05/12 07:55:23;;;;;;;1.83;1.50;;;23.80;45.90;;;;;;5092232;28;20459;-87
2022/05/12 07:57:51;;;;;;;3.70;1.83;;;24.00;45.60;;;;;;5082938;28;20466;-89
2022/05/12 08:00:19;;;;;;;1.90;1.60;;;24.00;45.10;;;;;;5058526;28;20483;-87
2022/05/12 08:02:46;;;;;;;4.03;1.63;;;24.20;45.00;;;;;;5061136;28;20470;-88
2022/05/12 08:05:13;;;;;;;3.83;1.70;;;24.20;45.20;;;;;;5063176;28;20478;-89
2022/05/12 08:07:40;;;;;;;2.37;1.63;;;24.30;45.00;;;;;;5093857;28;20435;-88
2022/05/12 08:10:09;;;;;;;2.17;1.83;;;24.30;44.20;;;;;;5044259;28;20463;-88
2022/05/12 08:12:35;;;;;;;1.80;1.70;;;24.50;45.80;;;;;;5089453;28;20448;-89
2022/05/12 08:15:03;;;;;;;2.00;1.70;;;24.60;45.00;;;;;;5058763;28;20463;-88
2022/05/12 08:17:30;;;;;;;4.80;1.60;;;24.90;45.30;;;;;;5060867;28;21300;-88
2022/05/12 08:19:57;;;;;;;2.57;1.57;;;24.80;43.40;;;;;;5065873;28;20471;-90
2022/05/12 08:22:24;;;;;;;2.37;1.50;;;24.60;44.80;;;;;;5071109;28;20469;-89
2022/05/12 08:24:51;;;;;;;1.80;1.70;;;24.60;44.10;;;;;;5090065;28;20479;-88
2022/05/12 08:27:20;;;;;;;2.40;1.73;;;24.80;43.70;;;;;;5064004;28;20431;-89
2022/05/12 08:29:46;;;;;;;2.23;1.87;;;24.90;44.20;;;;;;5073578;28;20861;-89
2022/05/12 08:32:13;;;;;;;2.13;1.80;;;25.00;43.40;;;;;;5089865;28;20814;-89
2022/05/12 08:34:40;;;;;;;2.23;1.80;;;25.10;43.40;;;;;;5056521;28;20516;-90
2022/05/12 08:37:09;;;;;;;4.30;1.73;;;25.30;43.80;;;;;;5077596;28;20474;-89
2022/05/12 08:39:36;;;;;;;2.03;1.43;;;25.40;42.90;;;;;;5090201;28;21048;-90
2022/05/12 08:42:10;;;;;;;1.40;1.30;;;25.60;42.50;;;;;;5070510;28;20467;-89
2022/05/12 08:44:40;;;;;;;1.83;1.50;;;25.50;41.80;;;;;;5071878;28;20451;-89
2022/05/12 08:47:14;;;;;;;3.43;1.90;;;25.60;41.90;;;;;;5059651;28;20445;-87
2022/05/12 08:49:44;;;;;;;2.00;1.90;;;25.40;41.50;;;;;;5074906;28;20458;-88
2022/05/12 08:52:17;;;;;;;1.83;1.50;;;25.10;40.80;;;;;;5043203;28;20533;-88
2022/05/12 08:54:51;;;;;;;2.27;1.53;;;25.20;41.60;;;;;;5063986;28;20451;-88
2022/05/12 08:57:27;;;;;;;2.30;1.47;;;25.00;41.20;;;;;;5041225;28;20481;-87
2022/05/12 08:59:57;;;;;;;2.27;1.40;;;24.90;41.10;;;;;;5089650;28;20462;-88
2022/05/12 09:02:31;;;;;;;1.60;1.50;;;24.80;41.90;;;;;;5074063;28;20471;-90
2022/05/12 09:05:04;;;;;;;2.63;1.70;;;24.90;41.60;;;;;;5056253;28;20450;-88
2022/05/12 09:07:38;;;;;;;1.97;1.53;;;24.80;41.60;;;;;;5069026;28;20462;-89
2022/05/12 09:10:16;;;;;;;2.70;1.53;;;24.70;42.10;;;;;;5069498;28;20466;-89
2022/05/12 09:12:51;;;;;;;2.13;1.50;;;25.00;42.20;;;;;;5078278;28;20450;-89
2022/05/12 09:15:24;;;;;;;3.40;1.60;;;24.80;42.70;;;;;;5079167;28;20446;-89
2022/05/12 09:17:55;;;;;;;2.40;1.73;;;24.60;41.80;;;;;;5078209;28;20438;-88
2022/05/12 09:20:24;;;;;;;2.47;1.50;;;24.80;43.20;;;;;;5093245;28;20479;-89
2022/05/12 09:22:51;;;;;;;1.87;1.60;;;25.10;43.30;;;;;;5060352;28;20553;-89
2022/05/12 09:25:35;;;;;;;2.70;2.17;;;25.50;43.70;;;;;;5076220;28;20505;-88
2022/05/12 09:28:24;;;;;;;3.23;1.70;;;25.60;41.80;;;;;;5060019;28;21144;-89
2022/05/12 09:30:53;;;;;;;2.73;1.60;;;25.30;41.00;;;;;;5078233;28;20459;-87
2022/05/12 09:33:31;;;;;;;1.67;1.57;;;25.00;41.60;;;;;;5084529;28;20459;-88
2022/05/12 09:36:00;;;;;;;2.90;1.80;;;24.70;42.20;;;;;;5074441;28;20455;-88
2022/05/12 09:38:28;;;;;;;2.10;1.77;;;24.80;42.00;;;;;;5094460;28;20445;-90
2022/05/12 09:40:56;;;;;;;2.30;1.60;;;25.10;43.50;;;;;;5064740;28;20475;-90
2022/05/12 09:43:29;;;;;;;5.13;1.73;;;25.40;41.30;;;;;;5075344;28;20494;-88
2022/05/12 09:46:07;;;;;;;3.73;1.93;;;25.60;40.70;;;;;;5093589;28;20439;-88
2022/05/12 09:48:35;;;;;;;5.03;1.50;;;25.80;41.20;;;;;;5074597;28;20444;-88
2022/05/12 09:51:22;;;;;;;3.50;1.60;;;25.50;41.30;;;;;;5094387;28;20558;-89
2022/05/12 09:53:51;;;;;;;2.33;1.60;;;25.20;40.20;;;;;;5078925;28;20443;-87
2022/05/12 09:56:31;;;;;;;4.30;1.60;;;24.80;40.30;;;;;;5058936;28;20450;-87
2022/05/12 09:59:16;;;;;;;2.90;1.53;;;25.00;42.20;;;;;;5081868;28;20826;-88
2022/05/12 10:01:53;;;;;;;3.93;2.50;;;24.80;40.60;;;;;;5079679;28;20462;-85
2022/05/12 10:09:57;;;;;;;1.50;1.40;;;24.60;41.20;;;;;;5060164;28;20663;-86
2022/05/12 10:12:30;;;;;;;2.43;1.40;;;24.60;41.30;;;;;;5072972;28;20439;-88
2022/05/12 10:15:01;;;;;;;11.33;2.13;;;24.60;42.30;;;;;;5074042;28;20772;-87
2022/05/12 10:17:35;;;;;;;1.63;1.40;;;24.90;41.10;;;;;;5093060;28;20439;-87
2022/05/12 10:20:04;;;;;;;2.33;1.60;;;25.30;41.40;;;;;;5093331;28;20476;-88
2022/05/12 10:22:34;;;;;;;2.17;1.40;;;25.90;41.40;;;;;;5049865;28;20471;-88
2022/05/12 10:25:18;;;;;;;1.40;1.20;;;26.00;38.60;;;;;;5049485;28;20448;-88
2022/05/12 10:27:53;;;;;;;1.77;1.60;;;26.00;39.00;;;;;;5064513;28;20451;-88
2022/05/12 10:30:28;;;;;;;2.67;1.47;;;25.80;37.00;;;;;;5074015;28;20474;-88
2022/05/12 10:33:18;;;;;;;4.20;1.63;;;25.50;38.40;;;;;;5073844;28;20451;-87
2022/05/12 10:35:58;;;;;;;3.70;1.30;;;25.80;40.40;;;;;;5077675;28;20455;-87
2022/05/12 10:38:32;;;;;;;4.50;1.30;;;26.00;37.40;;;;;;5060117;28;20466;-87
2022/05/12 10:41:09;;;;;;;2.23;1.50;;;26.30;36.70;;;;;;5075237;28;20969;-89
2022/05/12 10:44:09;;;;;;;1.40;1.30;;;26.50;35.90;;;;;;5060902;28;20456;-88
2022/05/12 10:46:50;;;;;;;13.23;1.37;;;26.70;35.30;;;;;;5073843;28;20466;-87
2022/05/12 10:49:23;;;;;;;2.17;1.50;;;26.80;35.20;;;;;;5091439;28;20442;-85
2022/05/12 10:52:03;;;;;;;3.73;1.30;;;27.10;35.30;;;;;;5073237;28;20460;-86
2022/05/12 10:54:38;;;;;;;2.60;1.17;;;27.00;33.20;;;;;;5072715;28;20455;-86
2022/05/12 10:57:20;;;;;;;3.73;1.63;;;26.60;33.10;;;;;;5078958;28;20443;-86
2022/05/12 11:00:04;;;;;;;1.40;1.30;;;26.40;34.50;;;;;;5072057;28;20567;-86
2022/05/12 11:02:39;;;;;;;1.50;1.20;;;26.80;35.70;;;;;;5090898;28;20459;-87
2022/05/12 11:05:17;;;;;;;2.23;1.10;;;27.30;34.70;;;;;;5072618;28;20469;-88
2022/05/12 11:07:49;;;;;;;2.60;1.43;;;27.30;33.40;;;;;;5050595;28;20447;-87
2022/05/12 11:10:25;;;;;;;1.63;1.03;;;27.10;33.30;;;;;;5059434;28;20915;-87
2022/05/12 11:12:55;;;;;;;1.50;1.20;;;26.80;32.50;;;;;;5073386;28;20444;-89
2022/05/12 11:15:27;;;;;;;4.00;1.90;;;26.50;33.70;;;;;;5065011;28;20452;-88
2022/05/12 11:17:58;;;;;;;2.00;1.57;;;26.70;34.60;;;;;;5090750;28;20519;-86
2022/05/12 11:20:31;;;;;;;3.73;1.60;;;26.80;35.10;;;;;;5058999;28;20558;-88
2022/05/12 11:23:16;;;;;;;2.40;1.57;;;27.10;32.00;;;;;;5057826;28;20471;-87
2022/05/12 11:25:54;;;;;;;1.90;1.30;;;27.50;32.70;;;;;;5074207;28;20462;-88
2022/05/12 11:31:24;;;;;;;1.60;1.27;;;28.10;32.80;;;;;;5072884;28;20477;-88
2022/05/12 11:33:54;;;;;;;1.57;1.13;;;28.10;31.50;;;;;;5057636;28;20498;-88
2022/05/12 11:36:36;;;;;;;2.43;1.60;;;28.20;32.60;;;;;;5092178;28;20932;-87
2022/05/12 11:39:22;;;;;;;3.27;1.40;;;28.40;32.50;;;;;;5090736;28;21018;-89
2022/05/12 11:42:05;;;;;;;3.07;1.40;;;28.70;31.30;;;;;;5094157;28;20454;-88
2022/05/12 11:44:39;;;;;;;2.20;1.10;;;28.60;30.30;;;;;;5071625;28;20860;-87
2022/05/12 11:47:48;;;;;;;5.07;1.30;;;28.40;31.30;;;;;;5090945;28;20454;-87
2022/05/12 11:50:29;;;;;;;1.43;1.33;;;28.10;31.50;;;;;;5090244;28;20458;-87
2022/05/12 11:53:03;;;;;;;1.37;1.20;;;28.00;32.50;;;;;;5073728;28;20443;-88
2022/05/12 11:55:34;;;;;;;1.83;1.10;;;28.20;33.20;;;;;;5090576;28;20447;-88
2022/05/12 11:58:06;;;;;;;3.00;1.30;;;28.40;33.00;;;;;;5058425;28;20865;-87
2022/05/12 12:00:53;;;;;;;2.50;1.53;;;28.50;31.60;;;;;;5090519;28;20472;-87
2022/05/12 12:03:37;;;;;;;5.97;1.40;;;29.00;32.60;;;;;;5056220;28;20466;-89
2022/05/12 12:06:06;;;;;;;2.60;2.40;;;29.20;32.80;;;;;;5074646;28;20467;-88
2022/05/12 12:08:44;;;;;;;4.03;2.17;;;29.20;30.50;;;;;;5090796;28;21121;-88
2022/05/12 12:11:25;;;;;;;2.43;1.63;;;29.40;30.90;;;;;;5080178;28;21113;-89
2022/05/12 12:13:56;;;;;;;1.50;1.37;;;29.70;31.80;;;;;;5092954;28;20433;-87
2022/05/12 12:16:26;;;;;;;3.43;1.30;;;29.70;30.30;;;;;;5054596;28;20942;-88
2022/05/12 12:18:57;;;;;;;2.07;1.60;;;29.40;29.90;;;;;;5087290;28;20478;-87
2022/05/12 12:21:48;;;;;;;4.33;1.27;;;29.60;32.00;;;;;;5072517;28;20974;-87
2022/05/12 12:24:54;;;;;;;1.70;1.10;;;29.70;30.30;;;;;;5063256;28;20498;-89
2022/05/12 12:27:41;;;;;;;1.87;1.33;;;29.90;30.70;;;;;;5075507;28;20451;-90
2022/05/12 12:30:57;;;;;;;3.40;1.50;;;30.00;30.10;;;;;;5090828;28;20478;-88
2022/05/12 12:33:58;;;;;;;3.47;1.23;;;29.90;30.30;;;;;;5048266;28;20452;-86
2022/05/12 12:37:06;;;;;;;1.53;1.30;;;29.70;29.90;;;;;;5054786;28;20440;-86
2022/05/12 12:39:44;;;;;;;2.43;1.50;;;29.70;29.40;;;;;;5061805;28;20513;-87
2022/05/12 12:42:28;;;;;;;1.40;1.20;;;29.90;29.10;;;;;;5074025;28;20470;-87
2022/05/12 12:44:58;;;;;;;1.43;1.33;;;29.70;29.50;;;;;;5055269;28;20531;-89
2022/05/12 12:47:35;;;;;;;2.33;1.53;;;29.70;29.60;;;;;;5079189;28;20448;-86
2022/05/12 12:50:11;;;;;;;1.87;1.40;;;29.30;29.40;;;;;;5081015;28;20465;-87
2022/05/12 12:52:41;;;;;;;4.13;1.30;;;29.50;31.40;;;;;;5073463;28;20488;-89
2022/05/12 12:58:05;;;;;;;12.77;2.07;;;29.80;30.00;;;;;;5089356;28;20454;-87
2022/05/12 13:00:35;;;;;;;2.03;1.30;;;29.40;29.90;;;;;;5088414;28;21008;-88
2022/05/12 13:03:04;;;;;;;1.57;0.97;;;29.60;29.60;;;;;;5045077;28;20463;-86
2022/05/12 13:05:33;;;;;;;2.50;1.20;;;29.60;29.10;;;;;;5089780;28;20472;-88
2022/05/12 13:08:03;;;;;;;2.00;1.17;;;29.30;29.10;;;;;;5089736;28;20490;-88
2022/05/12 13:10:41;;;;;;;1.10;0.97;;;29.30;31.80;;;;;;5087062;28;20502;-86
2022/05/12 13:13:08;;;;;;;1.50;1.30;;;29.30;28.60;;;;;;5071994;28;20446;-88
2022/05/12 13:15:41;;;;;;;2.43;1.30;;;29.50;30.00;;;;;;5090800;28;20454;-87
2022/05/12 13:18:16;;;;;;;5.53;2.27;;;29.60;28.30;;;;;;5089047;28;20443;-87
2022/05/12 13:20:44;;;;;;;5.27;1.53;;;29.30;28.10;;;;;;5041107;28;20474;-87
2022/05/12 13:23:20;;;;;;;1.83;1.30;;;29.10;28.40;;;;;;5087764;28;20471;-87
2022/05/12 13:25:49;;;;;;;1.77;1.30;;;29.30;29.00;;;;;;5070131;28;21238;-87
2022/05/12 13:28:20;;;;;;;2.93;1.27;;;29.50;28.50;;;;;;5089164;28;20461;-87
2022/05/12 13:30:49;;;;;;;1.93;1.60;;;29.40;28.80;;;;;;5089510;28;21132;-86